sensor_id;sensor_type;location;lat;lon;timestamp;P1;durP1;ratioP1;P2;durP2;ratioP2
40373;SDS011;26079;45.958;12.492;2024-02-21T00:02:09;8.38;;;7.63;;
40373;SDS011;26079;45.958;12.492;2024-02-21T00:04:35;7.85;;;7.05;;
40373;SDS011;26079;45.958;12.492;2024-02-21T00:07:01;9.55;;;7.53;;
40373;SDS011;26079;45.958;12.492;2024-02-21T00:09:27;7.80;;;7.00;;
40373;SDS011;26079;45.958;12.492;2024-02-21T00:11:53;9.15;;;8.25;;
40373;SDS011;26079;45.958;12.492;2024-02-21T00:14:18;9.80;;;8.52;;
40373;SDS011;26079;45.958;12.492;2024-02-21T00:16:44;8.15;;;7.20;;
40373;SDS011;26079;45.958;12.492;2024-02-21T00:19:10;10.80;;;7.15;;
40373;SDS011;26079;45.958;12.492;2024-02-21T00:21:36;15.07;;;7.30;;
40373;SDS011;26079;45.958;12.492;2024-02-21T00:24:01;8.82;;;7.20;;
40373;SDS011;26079;45.958;12.492;2024-02-21T00:26:27;8.55;;;7.55;;
40373;SDS011;26079;45.958;12.492;2024-02-21T00:28:53;10.00;;;8.05;;
40373;SDS011;26079;45.958;12.492;2024-02-21T00:31:18;9.23;;;8.07;;
40373;SDS011;26079;45.958;12.492;2024-02-21T00:33:44;9.80;;;8.68;;
40373;SDS011;26079;45.958;12.492;2024-02-21T00:36:09;9.38;;;7.55;;
40373;SDS011;26079;45.958;12.492;2024-02-21T00:38:35;8.23;;;7.32;;
40373;SDS011;26079;45.958;12.492;2024-02-21T00:41:01;9.68;;;8.57;;
40373;SDS011;26079;45.958;12.492;2024-02-21T00:43:26;15.13;;;9.10;;
40373;SDS011;26079;45.958;12.492;2024-02-21T00:45:52;10.85;;;8.98;;
40373;SDS011;26079;45.958;12.492;2024-02-21T00:48:18;9.88;;;7.75;;
40373;SDS011;26079;45.958;12.492;2024-02-21T00:50:43;11.27;;;8.30;;
40373;SDS011;26079;45.958;12.492;2024-02-21T00:53:09;9.93;;;8.93;;
40373;SDS011;26079;45.958;12.492;2024-02-21T00:55:35;8.93;;;7.70;;
40373;SDS011;26079;45.958;12.492;2024-02-21T00:58:01;10.65;;;8.85;;
40373;SDS011;26079;45.958;12.492;2024-02-21T01:00:26;9.52;;;8.52;;
40373;SDS011;26079;45.958;12.492;2024-02-21T01:02:52;11.00;;;8.13;;
40373;SDS011;26079;45.958;12.492;2024-02-21T01:05:18;16.60;;;9.00;;
40373;SDS011;26079;45.958;12.492;2024-02-21T01:07:45;16.08;;;9.98;;
40373;SDS011;26079;45.958;12.492;2024-02-21T01:10:10;10.65;;;9.18;;
40373;SDS011;26079;45.958;12.492;2024-02-21T01:12:36;11.32;;;8.93;;
40373;SDS011;26079;45.958;12.492;2024-02-21T01:15:02;13.43;;;9.45;;
40373;SDS011;26079;45.958;12.492;2024-02-21T01:17:28;11.65;;;10.20;;
40373;SDS011;26079;45.958;12.492;2024-02-21T01:19:54;12.77;;;10.80;;
40373;SDS011;26079;45.958;12.492;2024-02-21T01:22:19;12.60;;;9.43;;
40373;SDS011;26079;45.958;12.492;2024-02-21T01:24:45;12.68;;;10.18;;
40373;SDS011;26079;45.958;12.492;2024-02-21T01:27:10;12.50;;;10.40;;
40373;SDS011;26079;45.958;12.492;2024-02-21T01:29:36;14.95;;;10.25;;
40373;SDS011;26079;45.958;12.492;2024-02-21T01:32:02;9.90;;;8.90;;
40373;SDS011;26079;45.958;12.492;2024-02-21T01:34:28;13.30;;;10.70;;
40373;SDS011;26079;45.958;12.492;2024-02-21T01:36:54;9.98;;;8.95;;
40373;SDS011;26079;45.958;12.492;2024-02-21T01:39:19;9.77;;;8.85;;
40373;SDS011;26079;45.958;12.492;2024-02-21T01:41:45;10.30;;;9.07;;
40373;SDS011;26079;45.958;12.492;2024-02-21T01:44:10;11.52;;;8.95;;
40373;SDS011;26079;45.958;12.492;2024-02-21T01:46:36;12.50;;;9.13;;
40373;SDS011;26079;45.958;12.492;2024-02-21T01:49:02;12.98;;;8.93;;
40373;SDS011;26079;45.958;12.492;2024-02-21T01:51:29;10.98;;;9.02;;
40373;SDS011;26079;45.958;12.492;2024-02-21T01:53:55;12.25;;;8.77;;
40373;SDS011;26079;45.958;12.492;2024-02-21T01:56:23;11.05;;;9.30;;
40373;SDS011;26079;45.958;12.492;2024-02-21T01:58:49;11.73;;;9.55;;
40373;SDS011;26079;45.958;12.492;2024-02-21T02:01:16;11.80;;;10.13;;
40373;SDS011;26079;45.958;12.492;2024-02-21T02:03:42;11.18;;;8.63;;
40373;SDS011;26079;45.958;12.492;2024-02-21T02:06:10;11.00;;;9.43;;
40373;SDS011;26079;45.958;12.492;2024-02-21T02:08:35;12.25;;;10.13;;
40373;SDS011;26079;45.958;12.492;2024-02-21T02:11:01;15.13;;;10.70;;
40373;SDS011;26079;45.958;12.492;2024-02-21T02:13:27;11.32;;;10.13;;
40373;SDS011;26079;45.958;12.492;2024-02-21T02:15:53;12.77;;;10.05;;
40373;SDS011;26079;45.958;12.492;2024-02-21T02:18:20;17.55;;;10.70;;
40373;SDS011;26079;45.958;12.492;2024-02-21T02:20:46;11.90;;;9.73;;
40373;SDS011;26079;45.958;12.492;2024-02-21T02:28:17;14.52;;;9.32;;
40373;SDS011;26079;45.958;12.492;2024-02-21T02:30:43;14.43;;;10.27;;
40373;SDS011;26079;45.958;12.492;2024-02-21T02:33:09;10.60;;;9.15;;
40373;SDS011;26079;45.958;12.492;2024-02-21T02:35:35;10.68;;;9.40;;
40373;SDS011;26079;45.958;12.492;2024-02-21T02:38:01;15.43;;;10.20;;
40373;SDS011;26079;45.958;12.492;2024-02-21T02:40:27;12.45;;;10.63;;
40373;SDS011;26079;45.958;12.492;2024-02-21T02:42:53;10.73;;;9.73;;
40373;SDS011;26079;45.958;12.492;2024-02-21T02:45:20;9.90;;;8.88;;
40373;SDS011;26079;45.958;12.492;2024-02-21T02:47:51;13.95;;;10.00;;
40373;SDS011;26079;45.958;12.492;2024-02-21T02:50:18;16.00;;;9.60;;
40373;SDS011;26079;45.958;12.492;2024-02-21T02:52:44;13.23;;;10.73;;
40373;SDS011;26079;45.958;12.492;2024-02-21T02:55:10;11.77;;;10.40;;
40373;SDS011;26079;45.958;12.492;2024-02-21T02:57:35;16.38;;;10.45;;
40373;SDS011;26079;45.958;12.492;2024-02-21T03:00:01;10.50;;;9.50;;
40373;SDS011;26079;45.958;12.492;2024-02-21T03:02:28;10.77;;;8.80;;
40373;SDS011;26079;45.958;12.492;2024-02-21T03:04:53;10.80;;;9.52;;
40373;SDS011;26079;45.958;12.492;2024-02-21T03:07:19;14.05;;;9.25;;
40373;SDS011;26079;45.958;12.492;2024-02-21T03:09:45;11.63;;;8.82;;
40373;SDS011;26079;45.958;12.492;2024-02-21T03:12:11;9.27;;;8.40;;
40373;SDS011;26079;45.958;12.492;2024-02-21T03:14:37;11.00;;;9.88;;
40373;SDS011;26079;45.958;12.492;2024-02-21T03:17:02;11.18;;;10.07;;
40373;SDS011;26079;45.958;12.492;2024-02-21T03:19:29;10.50;;;8.93;;
40373;SDS011;26079;45.958;12.492;2024-02-21T03:21:55;12.63;;;9.77;;
40373;SDS011;26079;45.958;12.492;2024-02-21T03:24:21;17.10;;;9.85;;
40373;SDS011;26079;45.958;12.492;2024-02-21T03:26:47;16.42;;;9.52;;
40373;SDS011;26079;45.958;12.492;2024-02-21T03:29:14;11.80;;;9.00;;
40373;SDS011;26079;45.958;12.492;2024-02-21T03:31:41;15.27;;;8.55;;
40373;SDS011;26079;45.958;12.492;2024-02-21T03:34:07;10.27;;;9.10;;
40373;SDS011;26079;45.958;12.492;2024-02-21T03:36:32;9.30;;;8.40;;
40373;SDS011;26079;45.958;12.492;2024-02-21T03:38:58;11.15;;;9.05;;
40373;SDS011;26079;45.958;12.492;2024-02-21T03:41:24;9.18;;;8.27;;
40373;SDS011;26079;45.958;12.492;2024-02-21T03:43:50;10.60;;;8.50;;
40373;SDS011;26079;45.958;12.492;2024-02-21T03:46:15;11.45;;;9.20;;
40373;SDS011;26079;45.958;12.492;2024-02-21T03:48:41;11.10;;;9.98;;
40373;SDS011;26079;45.958;12.492;2024-02-21T03:51:07;10.75;;;9.65;;
40373;SDS011;26079;45.958;12.492;2024-02-21T03:53:32;10.60;;;9.10;;
40373;SDS011;26079;45.958;12.492;2024-02-21T03:56:01;11.10;;;9.40;;
40373;SDS011;26079;45.958;12.492;2024-02-21T03:58:29;14.02;;;9.77;;
40373;SDS011;26079;45.958;12.492;2024-02-21T04:00:55;11.50;;;10.30;;
40373;SDS011;26079;45.958;12.492;2024-02-21T04:03:20;10.90;;;9.32;;
40373;SDS011;26079;45.958;12.492;2024-02-21T04:05:46;11.13;;;9.93;;
40373;SDS011;26079;45.958;12.492;2024-02-21T04:08:12;10.98;;;9.50;;
40373;SDS011;26079;45.958;12.492;2024-02-21T04:10:38;13.60;;;10.35;;
40373;SDS011;26079;45.958;12.492;2024-02-21T04:13:04;11.52;;;10.13;;
40373;SDS011;26079;45.958;12.492;2024-02-21T04:15:31;11.40;;;10.02;;
40373;SDS011;26079;45.958;12.492;2024-02-21T04:17:57;13.57;;;9.32;;
40373;SDS011;26079;45.958;12.492;2024-02-21T04:20:22;9.63;;;8.63;;
40373;SDS011;26079;45.958;12.492;2024-02-21T04:22:48;11.10;;;9.57;;
40373;SDS011;26079;45.958;12.492;2024-02-21T04:25:14;12.40;;;9.02;;
40373;SDS011;26079;45.958;12.492;2024-02-21T04:27:40;10.45;;;8.93;;
40373;SDS011;26079;45.958;12.492;2024-02-21T04:30:05;15.77;;;9.23;;
40373;SDS011;26079;45.958;12.492;2024-02-21T04:32:32;10.93;;;9.07;;
40373;SDS011;26079;45.958;12.492;2024-02-21T04:34:58;10.20;;;8.65;;
40373;SDS011;26079;45.958;12.492;2024-02-21T04:37:23;15.13;;;7.75;;
40373;SDS011;26079;45.958;12.492;2024-02-21T04:39:49;9.48;;;7.85;;
40373;SDS011;26079;45.958;12.492;2024-02-21T04:42:15;9.50;;;7.25;;
40373;SDS011;26079;45.958;12.492;2024-02-21T04:44:41;10.40;;;7.85;;
40373;SDS011;26079;45.958;12.492;2024-02-21T04:47:07;9.00;;;8.02;;
40373;SDS011;26079;45.958;12.492;2024-02-21T04:49:33;10.48;;;8.30;;
40373;SDS011;26079;45.958;12.492;2024-02-21T04:51:59;10.23;;;7.90;;
40373;SDS011;26079;45.958;12.492;2024-02-21T04:54:25;7.95;;;7.15;;
40373;SDS011;26079;45.958;12.492;2024-02-21T04:56:51;8.00;;;7.20;;
40373;SDS011;26079;45.958;12.492;2024-02-21T04:59:16;10.70;;;7.60;;
40373;SDS011;26079;45.958;12.492;2024-02-21T05:01:42;10.57;;;7.60;;
40373;SDS011;26079;45.958;12.492;2024-02-21T05:04:08;8.90;;;8.10;;
40373;SDS011;26079;45.958;12.492;2024-02-21T05:06:37;13.88;;;7.15;;
40373;SDS011;26079;45.958;12.492;2024-02-21T05:09:04;9.70;;;8.30;;
40373;SDS011;26079;45.958;12.492;2024-02-21T05:11:30;11.32;;;8.82;;
40373;SDS011;26079;45.958;12.492;2024-02-21T05:13:56;9.48;;;8.13;;
40373;SDS011;26079;45.958;12.492;2024-02-21T05:16:22;9.13;;;6.88;;
40373;SDS011;26079;45.958;12.492;2024-02-21T05:18:47;16.42;;;7.75;;
40373;SDS011;26079;45.958;12.492;2024-02-21T05:21:13;7.88;;;7.07;;
40373;SDS011;26079;45.958;12.492;2024-02-21T05:23:39;7.88;;;7.07;;
40373;SDS011;26079;45.958;12.492;2024-02-21T05:26:05;7.72;;;6.90;;
40373;SDS011;26079;45.958;12.492;2024-02-21T05:28:31;11.43;;;8.23;;
40373;SDS011;26079;45.958;12.492;2024-02-21T05:30:57;9.30;;;7.68;;
40373;SDS011;26079;45.958;12.492;2024-02-21T05:33:23;7.65;;;6.90;;
40373;SDS011;26079;45.958;12.492;2024-02-21T05:35:49;8.20;;;6.80;;
40373;SDS011;26079;45.958;12.492;2024-02-21T05:38:15;13.20;;;8.02;;
40373;SDS011;26079;45.958;12.492;2024-02-21T05:40:41;16.48;;;7.40;;
40373;SDS011;26079;45.958;12.492;2024-02-21T05:43:07;7.68;;;6.78;;
40373;SDS011;26079;45.958;12.492;2024-02-21T05:45:33;10.85;;;7.18;;
40373;SDS011;26079;45.958;12.492;2024-02-21T05:47:59;8.95;;;7.47;;
40373;SDS011;26079;45.958;12.492;2024-02-21T05:50:25;9.18;;;8.25;;
40373;SDS011;26079;45.958;12.492;2024-02-21T05:52:54;8.80;;;6.95;;
40373;SDS011;26079;45.958;12.492;2024-02-21T05:55:23;13.80;;;9.35;;
40373;SDS011;26079;45.958;12.492;2024-02-21T05:57:48;9.63;;;8.23;;
40373;SDS011;26079;45.958;12.492;2024-02-21T06:00:15;11.98;;;9.23;;
40373;SDS011;26079;45.958;12.492;2024-02-21T06:02:41;14.30;;;10.98;;
40373;SDS011;26079;45.958;12.492;2024-02-21T06:05:07;18.65;;;13.35;;
40373;SDS011;26079;45.958;12.492;2024-02-21T06:07:34;14.30;;;9.15;;
40373;SDS011;26079;45.958;12.492;2024-02-21T06:10:01;9.88;;;8.18;;
40373;SDS011;26079;45.958;12.492;2024-02-21T06:12:27;10.70;;;8.80;;
40373;SDS011;26079;45.958;12.492;2024-02-21T06:14:53;9.32;;;7.82;;
40373;SDS011;26079;45.958;12.492;2024-02-21T06:17:18;8.35;;;7.50;;
40373;SDS011;26079;45.958;12.492;2024-02-21T06:19:44;20.25;;;7.45;;
40373;SDS011;26079;45.958;12.492;2024-02-21T06:22:10;11.32;;;7.55;;
40373;SDS011;26079;45.958;12.492;2024-02-21T06:24:36;10.23;;;8.55;;
40373;SDS011;26079;45.958;12.492;2024-02-21T06:27:03;8.95;;;7.03;;
40373;SDS011;26079;45.958;12.492;2024-02-21T06:29:31;10.38;;;7.72;;
40373;SDS011;26079;45.958;12.492;2024-02-21T06:31:57;10.32;;;7.57;;
40373;SDS011;26079;45.958;12.492;2024-02-21T06:34:22;16.80;;;10.50;;
40373;SDS011;26079;45.958;12.492;2024-02-21T06:36:49;11.75;;;10.55;;
40373;SDS011;26079;45.958;12.492;2024-02-21T06:39:15;12.65;;;9.85;;
40373;SDS011;26079;45.958;12.492;2024-02-21T06:41:41;16.25;;;12.13;;
40373;SDS011;26079;45.958;12.492;2024-02-21T06:44:06;16.17;;;13.40;;
40373;SDS011;26079;45.958;12.492;2024-02-21T06:46:32;16.00;;;13.07;;
40373;SDS011;26079;45.958;12.492;2024-02-21T06:49:00;16.48;;;10.32;;
40373;SDS011;26079;45.958;12.492;2024-02-21T06:51:27;9.15;;;8.23;;
40373;SDS011;26079;45.958;12.492;2024-02-21T06:53:53;9.70;;;8.60;;
40373;SDS011;26079;45.958;12.492;2024-02-21T06:56:19;11.23;;;8.27;;
40373;SDS011;26079;45.958;12.492;2024-02-21T06:58:45;11.55;;;8.20;;
40373;SDS011;26079;45.958;12.492;2024-02-21T07:01:11;11.40;;;9.38;;
40373;SDS011;26079;45.958;12.492;2024-02-21T07:03:37;14.40;;;10.48;;
40373;SDS011;26079;45.958;12.492;2024-02-21T07:06:03;17.08;;;11.20;;
40373;SDS011;26079;45.958;12.492;2024-02-21T07:08:29;29.27;;;12.50;;
40373;SDS011;26079;45.958;12.492;2024-02-21T07:10:54;18.17;;;12.55;;
40373;SDS011;26079;45.958;12.492;2024-02-21T07:13:20;24.55;;;15.23;;
40373;SDS011;26079;45.958;12.492;2024-02-21T07:15:47;27.85;;;16.10;;
40373;SDS011;26079;45.958;12.492;2024-02-21T07:18:13;28.55;;;16.10;;
40373;SDS011;26079;45.958;12.492;2024-02-21T07:20:39;21.75;;;15.75;;
40373;SDS011;26079;45.958;12.492;2024-02-21T07:23:06;29.20;;;14.25;;
40373;SDS011;26079;45.958;12.492;2024-02-21T07:25:35;31.73;;;14.45;;
40373;SDS011;26079;45.958;12.492;2024-02-21T07:28:01;19.35;;;13.73;;
40373;SDS011;26079;45.958;12.492;2024-02-21T07:30:26;21.67;;;13.10;;
40373;SDS011;26079;45.958;12.492;2024-02-21T07:32:52;30.98;;;14.48;;
40373;SDS011;26079;45.958;12.492;2024-02-21T07:35:18;22.80;;;15.50;;
40373;SDS011;26079;45.958;12.492;2024-02-21T07:37:43;36.65;;;19.85;;
40373;SDS011;26079;45.958;12.492;2024-02-21T07:40:13;32.05;;;18.45;;
40373;SDS011;26079;45.958;12.492;2024-02-21T07:42:40;32.85;;;17.50;;
40373;SDS011;26079;45.958;12.492;2024-02-21T07:45:07;29.77;;;18.23;;
40373;SDS011;26079;45.958;12.492;2024-02-21T07:47:33;27.02;;;19.00;;
40373;SDS011;26079;45.958;12.492;2024-02-21T07:49:59;25.25;;;15.93;;
40373;SDS011;26079;45.958;12.492;2024-02-21T07:52:25;31.67;;;16.75;;
40373;SDS011;26079;45.958;12.492;2024-02-21T07:54:50;24.52;;;18.02;;
40373;SDS011;26079;45.958;12.492;2024-02-21T07:57:16;44.25;;;19.48;;
40373;SDS011;26079;45.958;12.492;2024-02-21T07:59:42;33.90;;;17.13;;
40373;SDS011;26079;45.958;12.492;2024-02-21T08:02:08;32.55;;;15.52;;
40373;SDS011;26079;45.958;12.492;2024-02-21T08:04:34;38.30;;;16.45;;
40373;SDS011;26079;45.958;12.492;2024-02-21T08:06:59;35.50;;;16.10;;
40373;SDS011;26079;45.958;12.492;2024-02-21T08:09:27;47.53;;;18.75;;
40373;SDS011;26079;45.958;12.492;2024-02-21T08:11:56;49.58;;;21.25;;
40373;SDS011;26079;45.958;12.492;2024-02-21T08:14:22;47.45;;;17.60;;
40373;SDS011;26079;45.958;12.492;2024-02-21T08:16:50;29.63;;;20.25;;
40373;SDS011;26079;45.958;12.492;2024-02-21T08:19:18;37.30;;;20.25;;
40373;SDS011;26079;45.958;12.492;2024-02-21T08:21:44;30.08;;;18.45;;
40373;SDS011;26079;45.958;12.492;2024-02-21T08:24:12;35.72;;;18.10;;
40373;SDS011;26079;45.958;12.492;2024-02-21T08:26:40;32.70;;;19.13;;
40373;SDS011;26079;45.958;12.492;2024-02-21T08:29:06;30.38;;;16.08;;
40373;SDS011;26079;45.958;12.492;2024-02-21T08:31:37;30.67;;;13.95;;
40373;SDS011;26079;45.958;12.492;2024-02-21T08:34:03;21.40;;;14.88;;
40373;SDS011;26079;45.958;12.492;2024-02-21T08:36:35;25.63;;;14.13;;
40373;SDS011;26079;45.958;12.492;2024-02-21T08:39:02;34.90;;;18.63;;
40373;SDS011;26079;45.958;12.492;2024-02-21T08:41:32;26.80;;;16.48;;
40373;SDS011;26079;45.958;12.492;2024-02-21T08:43:58;22.05;;;16.60;;
40373;SDS011;26079;45.958;12.492;2024-02-21T08:46:24;23.23;;;17.65;;
40373;SDS011;26079;45.958;12.492;2024-02-21T08:48:50;23.10;;;15.40;;
40373;SDS011;26079;45.958;12.492;2024-02-21T08:51:16;33.90;;;17.70;;
40373;SDS011;26079;45.958;12.492;2024-02-21T08:53:43;36.15;;;16.85;;
40373;SDS011;26079;45.958;12.492;2024-02-21T08:56:10;28.20;;;16.23;;
40373;SDS011;26079;45.958;12.492;2024-02-21T08:58:36;28.98;;;16.88;;
40373;SDS011;26079;45.958;12.492;2024-02-21T09:01:02;22.85;;;14.55;;
40373;SDS011;26079;45.958;12.492;2024-02-21T09:03:32;36.45;;;17.10;;
40373;SDS011;26079;45.958;12.492;2024-02-21T09:05:58;26.63;;;16.40;;
40373;SDS011;26079;45.958;12.492;2024-02-21T09:08:24;25.23;;;15.48;;
40373;SDS011;26079;45.958;12.492;2024-02-21T09:10:51;45.65;;;18.15;;
40373;SDS011;26079;45.958;12.492;2024-02-21T09:13:17;35.20;;;14.65;;
40373;SDS011;26079;45.958;12.492;2024-02-21T09:15:43;23.80;;;13.23;;
40373;SDS011;26079;45.958;12.492;2024-02-21T09:18:08;30.35;;;13.13;;
40373;SDS011;26079;45.958;12.492;2024-02-21T09:20:34;16.77;;;11.85;;
40373;SDS011;26079;45.958;12.492;2024-02-21T09:23:00;19.15;;;11.65;;
40373;SDS011;26079;45.958;12.492;2024-02-21T09:25:26;15.95;;;11.38;;
40373;SDS011;26079;45.958;12.492;2024-02-21T09:27:53;18.98;;;10.68;;
40373;SDS011;26079;45.958;12.492;2024-02-21T09:30:19;25.10;;;11.18;;
40373;SDS011;26079;45.958;12.492;2024-02-21T09:32:45;17.95;;;11.02;;
40373;SDS011;26079;45.958;12.492;2024-02-21T09:35:11;9.65;;;7.70;;
40373;SDS011;26079;45.958;12.492;2024-02-21T09:37:37;6.22;;;5.45;;
40373;SDS011;26079;45.958;12.492;2024-02-21T09:40:04;2.72;;;1.40;;
40373;SDS011;26079;45.958;12.492;2024-02-21T09:42:40;5.40;;;3.20;;
40373;SDS011;26079;45.958;12.492;2024-02-21T09:45:27;5.25;;;3.60;;
40373;SDS011;26079;45.958;12.492;2024-02-21T09:50:28;2.47;;;2.10;;
40373;SDS011;26079;45.958;12.492;2024-02-21T09:52:56;3.55;;;2.00;;
40373;SDS011;26079;45.958;12.492;2024-02-21T09:55:23;6.60;;;2.33;;
40373;SDS011;26079;45.958;12.492;2024-02-21T09:57:52;5.32;;;3.08;;
40373;SDS011;26079;45.958;12.492;2024-02-21T10:00:19;5.88;;;3.08;;
40373;SDS011;26079;45.958;12.492;2024-02-21T10:02:47;3.22;;;1.00;;
40373;SDS011;26079;45.958;12.492;2024-02-21T10:05:15;5.13;;;1.58;;
40373;SDS011;26079;45.958;12.492;2024-02-21T10:07:42;1.50;;;1.05;;
40373;SDS011;26079;45.958;12.492;2024-02-21T10:10:09;1.27;;;0.90;;
40373;SDS011;26079;45.958;12.492;2024-02-21T10:12:35;2.45;;;1.23;;
40373;SDS011;26079;45.958;12.492;2024-02-21T10:15:04;3.10;;;1.70;;
40373;SDS011;26079;45.958;12.492;2024-02-21T10:17:34;4.53;;;2.08;;
40373;SDS011;26079;45.958;12.492;2024-02-21T10:20:10;5.22;;;1.60;;
40373;SDS011;26079;45.958;12.492;2024-02-21T10:22:37;1.55;;;1.45;;
40373;SDS011;26079;45.958;12.492;2024-02-21T10:25:11;3.70;;;1.85;;
40373;SDS011;26079;45.958;12.492;2024-02-21T10:30:04;5.70;;;1.98;;
40373;SDS011;26079;45.958;12.492;2024-02-21T10:32:32;3.63;;;1.70;;
40373;SDS011;26079;45.958;12.492;2024-02-21T10:35:01;3.88;;;2.08;;
40373;SDS011;26079;45.958;12.492;2024-02-21T10:37:29;11.90;;;3.03;;
40373;SDS011;26079;45.958;12.492;2024-02-21T10:39:55;3.38;;;2.65;;
40373;SDS011;26079;45.958;12.492;2024-02-21T10:42:22;4.47;;;2.38;;
40373;SDS011;26079;45.958;12.492;2024-02-21T10:44:50;5.13;;;2.00;;
40373;SDS011;26079;45.958;12.492;2024-02-21T10:47:17;6.32;;;2.08;;
40373;SDS011;26079;45.958;12.492;2024-02-21T10:49:46;5.05;;;2.53;;
40373;SDS011;26079;45.958;12.492;2024-02-21T10:55:03;3.78;;;1.90;;
40373;SDS011;26079;45.958;12.492;2024-02-21T10:57:31;3.10;;;2.10;;
40373;SDS011;26079;45.958;12.492;2024-02-21T10:59:58;2.58;;;2.10;;
40373;SDS011;26079;45.958;12.492;2024-02-21T11:02:25;2.17;;;1.77;;
40373;SDS011;26079;45.958;12.492;2024-02-21T11:04:53;4.25;;;2.50;;
40373;SDS011;26079;45.958;12.492;2024-02-21T11:07:20;3.05;;;1.83;;
40373;SDS011;26079;45.958;12.492;2024-02-21T11:09:52;4.65;;;1.98;;
40373;SDS011;26079;45.958;12.492;2024-02-21T11:12:23;3.67;;;2.10;;
40373;SDS011;26079;45.958;12.492;2024-02-21T11:14:50;3.97;;;3.30;;
40373;SDS011;26079;45.958;12.492;2024-02-21T11:19:42;8.85;;;5.60;;
40373;SDS011;26079;45.958;12.492;2024-02-21T11:22:15;12.20;;;9.68;;
40373;SDS011;26079;45.958;12.492;2024-02-21T11:24:47;8.90;;;5.97;;
40373;SDS011;26079;45.958;12.492;2024-02-21T11:27:18;8.60;;;2.53;;
40373;SDS011;26079;45.958;12.492;2024-02-21T11:29:54;3.58;;;2.72;;
40373;SDS011;26079;45.958;12.492;2024-02-21T11:32:24;4.78;;;2.13;;
40373;SDS011;26079;45.958;12.492;2024-02-21T11:34:53;3.58;;;2.28;;
40373;SDS011;26079;45.958;12.492;2024-02-21T11:37:30;2.45;;;1.60;;
40373;SDS011;26079;45.958;12.492;2024-02-21T11:39:59;3.17;;;1.98;;
40373;SDS011;26079;45.958;12.492;2024-02-21T11:42:26;4.03;;;2.33;;
40373;SDS011;26079;45.958;12.492;2024-02-21T11:44:52;2.55;;;2.35;;
40373;SDS011;26079;45.958;12.492;2024-02-21T11:47:21;2.78;;;2.33;;
40373;SDS011;26079;45.958;12.492;2024-02-21T11:49:48;2.13;;;1.90;;
40373;SDS011;26079;45.958;12.492;2024-02-21T11:52:15;4.72;;;2.30;;
40373;SDS011;26079;45.958;12.492;2024-02-21T11:54:43;4.55;;;3.33;;
40373;SDS011;26079;45.958;12.492;2024-02-21T11:57:10;4.32;;;3.92;;
40373;SDS011;26079;45.958;12.492;2024-02-21T11:59:39;2.92;;;2.55;;
40373;SDS011;26079;45.958;12.492;2024-02-21T12:02:05;2.55;;;2.10;;
40373;SDS011;26079;45.958;12.492;2024-02-21T12:04:32;4.88;;;3.03;;
40373;SDS011;26079;45.958;12.492;2024-02-21T12:06:59;3.13;;;2.83;;
40373;SDS011;26079;45.958;12.492;2024-02-21T12:09:25;3.38;;;2.65;;
40373;SDS011;26079;45.958;12.492;2024-02-21T12:12:04;7.10;;;3.10;;
40373;SDS011;26079;45.958;12.492;2024-02-21T12:14:31;3.20;;;2.90;;
40373;SDS011;26079;45.958;12.492;2024-02-21T12:16:58;4.57;;;3.72;;
40373;SDS011;26079;45.958;12.492;2024-02-21T12:19:25;4.38;;;2.72;;
40373;SDS011;26079;45.958;12.492;2024-02-21T12:21:51;5.03;;;3.55;;
40373;SDS011;26079;45.958;12.492;2024-02-21T12:24:23;4.90;;;3.83;;
40373;SDS011;26079;45.958;12.492;2024-02-21T12:26:51;3.90;;;3.47;;
40373;SDS011;26079;45.958;12.492;2024-02-21T12:29:17;3.42;;;3.13;;
40373;SDS011;26079;45.958;12.492;2024-02-21T12:31:44;5.63;;;5.10;;
40373;SDS011;26079;45.958;12.492;2024-02-21T12:34:10;6.47;;;5.43;;
40373;SDS011;26079;45.958;12.492;2024-02-21T12:36:36;5.05;;;3.92;;
40373;SDS011;26079;45.958;12.492;2024-02-21T12:39:12;5.78;;;4.18;;
40373;SDS011;26079;45.958;12.492;2024-02-21T12:41:39;5.43;;;4.88;;
40373;SDS011;26079;45.958;12.492;2024-02-21T12:44:06;4.63;;;4.22;;
40373;SDS011;26079;45.958;12.492;2024-02-21T12:46:32;5.07;;;4.57;;
40373;SDS011;26079;45.958;12.492;2024-02-21T12:48:58;9.68;;;4.97;;
40373;SDS011;26079;45.958;12.492;2024-02-21T12:51:24;8.35;;;4.85;;
40373;SDS011;26079;45.958;12.492;2024-02-21T12:53:50;5.57;;;4.38;;
40373;SDS011;26079;45.958;12.492;2024-02-21T12:56:16;5.78;;;4.50;;
40373;SDS011;26079;45.958;12.492;2024-02-21T12:58:41;7.75;;;3.45;;
40373;SDS011;26079;45.958;12.492;2024-02-21T13:01:07;4.85;;;4.18;;
40373;SDS011;26079;45.958;12.492;2024-02-21T13:03:33;6.72;;;4.25;;
40373;SDS011;26079;45.958;12.492;2024-02-21T13:05:59;7.68;;;4.65;;
40373;SDS011;26079;45.958;12.492;2024-02-21T13:08:24;4.90;;;4.45;;
40373;SDS011;26079;45.958;12.492;2024-02-21T13:10:50;4.90;;;4.38;;
40373;SDS011;26079;45.958;12.492;2024-02-21T13:13:16;4.68;;;3.63;;
40373;SDS011;26079;45.958;12.492;2024-02-21T13:15:42;5.60;;;4.57;;
40373;SDS011;26079;45.958;12.492;2024-02-21T13:18:08;5.60;;;4.80;;
40373;SDS011;26079;45.958;12.492;2024-02-21T13:20:35;5.38;;;4.10;;
40373;SDS011;26079;45.958;12.492;2024-02-21T13:23:01;5.72;;;5.10;;
40373;SDS011;26079;45.958;12.492;2024-02-21T13:25:27;5.47;;;4.90;;
40373;SDS011;26079;45.958;12.492;2024-02-21T13:27:53;4.55;;;3.95;;
40373;SDS011;26079;45.958;12.492;2024-02-21T13:30:18;6.00;;;5.13;;
40373;SDS011;26079;45.958;12.492;2024-02-21T13:32:44;7.32;;;4.13;;
40373;SDS011;26079;45.958;12.492;2024-02-21T13:35:13;4.65;;;3.80;;
40373;SDS011;26079;45.958;12.492;2024-02-21T13:37:43;7.18;;;4.65;;
40373;SDS011;26079;45.958;12.492;2024-02-21T13:40:08;7.68;;;4.38;;
40373;SDS011;26079;45.958;12.492;2024-02-21T13:42:35;5.82;;;4.05;;
40373;SDS011;26079;45.958;12.492;2024-02-21T13:45:01;5.15;;;4.38;;
40373;SDS011;26079;45.958;12.492;2024-02-21T13:47:27;6.78;;;5.20;;
40373;SDS011;26079;45.958;12.492;2024-02-21T13:49:54;8.25;;;4.80;;
40373;SDS011;26079;45.958;12.492;2024-02-21T13:52:20;6.28;;;5.50;;
40373;SDS011;26079;45.958;12.492;2024-02-21T13:54:46;7.10;;;6.40;;
40373;SDS011;26079;45.958;12.492;2024-02-21T13:57:12;9.30;;;6.00;;
40373;SDS011;26079;45.958;12.492;2024-02-21T13:59:39;8.50;;;5.50;;
40373;SDS011;26079;45.958;12.492;2024-02-21T14:02:05;9.25;;;5.22;;
40373;SDS011;26079;45.958;12.492;2024-02-21T14:04:34;8.88;;;6.60;;
40373;SDS011;26079;45.958;12.492;2024-02-21T14:07:00;12.75;;;5.05;;
40373;SDS011;26079;45.958;12.492;2024-02-21T14:09:26;6.18;;;5.60;;
40373;SDS011;26079;45.958;12.492;2024-02-21T14:11:52;6.70;;;4.78;;
40373;SDS011;26079;45.958;12.492;2024-02-21T14:14:18;7.40;;;5.03;;
40373;SDS011;26079;45.958;12.492;2024-02-21T14:16:44;7.05;;;5.45;;
40373;SDS011;26079;45.958;12.492;2024-02-21T14:19:10;10.05;;;5.85;;
40373;SDS011;26079;45.958;12.492;2024-02-21T14:21:36;11.95;;;5.85;;
40373;SDS011;26079;45.958;12.492;2024-02-21T14:24:05;8.85;;;7.10;;
40373;SDS011;26079;45.958;12.492;2024-02-21T14:26:32;12.95;;;11.10;;
40373;SDS011;26079;45.958;12.492;2024-02-21T14:28:58;9.82;;;6.30;;
40373;SDS011;26079;45.958;12.492;2024-02-21T14:31:24;8.02;;;7.20;;
40373;SDS011;26079;45.958;12.492;2024-02-21T14:33:53;7.28;;;6.20;;
40373;SDS011;26079;45.958;12.492;2024-02-21T14:36:18;8.88;;;6.22;;